sensor_id;sensor_type;location;lat;lon;timestamp;P1;durP1;ratioP1;P2;durP2;ratioP2
33672;SDS011;20011;51.510;9.942;2023-07-20T00:00:30;3.95;;;3.28;;
33672;SDS011;20011;51.510;9.942;2023-07-20T00:03:13;4.82;;;3.58;;
33672;SDS011;20011;51.510;9.942;2023-07-20T00:05:43;8.82;;;3.35;;
33672;SDS011;20011;51.510;9.942;2023-07-20T00:08:11;6.85;;;3.88;;
33672;SDS011;20011;51.510;9.942;2023-07-20T00:10:37;7.97;;;3.65;;
33672;SDS011;20011;51.510;9.942;2023-07-20T00:13:04;9.40;;;4.15;;
33672;SDS011;20011;51.510;9.942;2023-07-20T00:15:32;7.78;;;3.10;;
33672;SDS011;20011;51.510;9.942;2023-07-20T00:17:59;8.40;;;4.15;;
33672;SDS011;20011;51.510;9.942;2023-07-20T00:20:26;10.20;;;3.78;;
33672;SDS011;20011;51.510;9.942;2023-07-20T00:22:53;11.40;;;5.43;;
33672;SDS011;20011;51.510;9.942;2023-07-20T00:25:21;8.52;;;5.32;;
33672;SDS011;20011;51.510;9.942;2023-07-20T00:27:48;8.05;;;5.93;;
33672;SDS011;20011;51.510;9.942;2023-07-20T00:30:15;7.65;;;6.03;;
33672;SDS011;20011;51.510;9.942;2023-07-20T00:32:42;8.45;;;6.47;;
33672;SDS011;20011;51.510;9.942;2023-07-20T00:35:10;12.00;;;7.03;;
33672;SDS011;20011;51.510;9.942;2023-07-20T00:37:38;9.75;;;6.45;;
33672;SDS011;20011;51.510;9.942;2023-07-20T00:40:06;9.68;;;5.88;;
33672;SDS011;20011;51.510;9.942;2023-07-20T00:42:33;8.32;;;5.10;;
33672;SDS011;20011;51.510;9.942;2023-07-20T00:45:01;5.85;;;3.78;;
33672;SDS011;20011;51.510;9.942;2023-07-20T00:47:28;6.57;;;3.25;;
33672;SDS011;20011;51.510;9.942;2023-07-20T00:49:55;7.45;;;3.13;;
33672;SDS011;20011;51.510;9.942;2023-07-20T00:52:23;3.47;;;1.75;;
33672;SDS011;20011;51.510;9.942;2023-07-20T00:54:51;4.53;;;1.50;;
33672;SDS011;20011;51.510;9.942;2023-07-20T00:57:22;3.88;;;1.60;;
33672;SDS011;20011;51.510;9.942;2023-07-20T00:59:52;2.70;;;1.55;;
33672;SDS011;20011;51.510;9.942;2023-07-20T01:02:19;3.53;;;1.50;;
33672;SDS011;20011;51.510;9.942;2023-07-20T01:04:46;2.97;;;1.42;;
33672;SDS011;20011;51.510;9.942;2023-07-20T01:09:55;1.48;;;1.20;;
33672;SDS011;20011;51.510;9.942;2023-07-20T01:12:46;3.15;;;1.40;;
33672;SDS011;20011;51.510;9.942;2023-07-20T01:15:15;2.90;;;1.45;;
33672;SDS011;20011;51.510;9.942;2023-07-20T01:17:42;3.75;;;1.50;;
33672;SDS011;20011;51.510;9.942;2023-07-20T01:20:13;1.70;;;1.35;;
33672;SDS011;20011;51.510;9.942;2023-07-20T01:29:06;4.40;;;1.48;;
33672;SDS011;20011;51.510;9.942;2023-07-20T01:31:50;1.63;;;1.30;;
33672;SDS011;20011;51.510;9.942;2023-07-20T01:34:19;2.70;;;1.30;;
33672;SDS011;20011;51.510;9.942;2023-07-20T01:36:48;4.45;;;1.20;;
33672;SDS011;20011;51.510;9.942;2023-07-20T01:39:16;11.88;;;1.60;;
33672;SDS011;20011;51.510;9.942;2023-07-20T01:41:44;1.30;;;1.20;;
33672;SDS011;20011;51.510;9.942;2023-07-20T01:44:12;1.45;;;1.30;;
33672;SDS011;20011;51.510;9.942;2023-07-20T01:46:39;2.60;;;1.60;;
33672;SDS011;20011;51.510;9.942;2023-07-20T01:49:06;2.53;;;1.23;;
33672;SDS011;20011;51.510;9.942;2023-07-20T01:51:33;1.85;;;1.45;;
33672;SDS011;20011;51.510;9.942;2023-07-20T01:54:00;9.05;;;1.75;;
33672;SDS011;20011;51.510;9.942;2023-07-20T01:56:27;4.13;;;1.45;;
33672;SDS011;20011;51.510;9.942;2023-07-20T01:58:55;5.38;;;1.90;;
33672;SDS011;20011;51.510;9.942;2023-07-20T02:01:22;3.78;;;1.65;;
33672;SDS011;20011;51.510;9.942;2023-07-20T02:03:49;2.97;;;1.63;;
33672;SDS011;20011;51.510;9.942;2023-07-20T02:06:16;5.30;;;2.08;;
33672;SDS011;20011;51.510;9.942;2023-07-20T02:08:44;5.47;;;1.77;;
33672;SDS011;20011;51.510;9.942;2023-07-20T02:11:10;2.40;;;1.70;;
33672;SDS011;20011;51.510;9.942;2023-07-20T02:13:38;6.32;;;1.85;;
33672;SDS011;20011;51.510;9.942;2023-07-20T02:16:05;2.55;;;1.85;;
33672;SDS011;20011;51.510;9.942;2023-07-20T02:18:33;7.72;;;2.00;;
33672;SDS011;20011;51.510;9.942;2023-07-20T02:21:00;13.77;;;1.90;;
33672;SDS011;20011;51.510;9.942;2023-07-20T02:23:27;3.83;;;2.08;;
33672;SDS011;20011;51.510;9.942;2023-07-20T02:25:54;2.85;;;2.20;;
33672;SDS011;20011;51.510;9.942;2023-07-20T02:28:20;3.95;;;2.08;;
33672;SDS011;20011;51.510;9.942;2023-07-20T02:30:47;3.92;;;2.00;;
33672;SDS011;20011;51.510;9.942;2023-07-20T02:33:15;5.47;;;2.20;;
33672;SDS011;20011;51.510;9.942;2023-07-20T02:35:42;3.60;;;2.28;;
33672;SDS011;20011;51.510;9.942;2023-07-20T02:38:09;6.30;;;2.55;;
33672;SDS011;20011;51.510;9.942;2023-07-20T02:40:36;2.45;;;2.17;;
33672;SDS011;20011;51.510;9.942;2023-07-20T02:43:03;3.45;;;2.20;;
33672;SDS011;20011;51.510;9.942;2023-07-20T02:45:30;4.47;;;2.00;;
33672;SDS011;20011;51.510;9.942;2023-07-20T02:47:57;2.35;;;2.15;;
33672;SDS011;20011;51.510;9.942;2023-07-20T02:50:24;3.75;;;1.85;;
33672;SDS011;20011;51.510;9.942;2023-07-20T02:52:51;5.95;;;2.40;;
33672;SDS011;20011;51.510;9.942;2023-07-20T02:55:17;7.18;;;2.20;;
33672;SDS011;20011;51.510;9.942;2023-07-20T02:57:45;2.10;;;1.92;;
33672;SDS011;20011;51.510;9.942;2023-07-20T03:00:12;3.15;;;2.17;;
33672;SDS011;20011;51.510;9.942;2023-07-20T03:02:42;3.80;;;2.47;;
33672;SDS011;20011;51.510;9.942;2023-07-20T03:05:09;4.70;;;2.25;;
33672;SDS011;20011;51.510;9.942;2023-07-20T03:07:36;3.75;;;2.30;;
33672;SDS011;20011;51.510;9.942;2023-07-20T03:10:04;4.75;;;2.53;;
33672;SDS011;20011;51.510;9.942;2023-07-20T03:12:33;4.85;;;1.90;;
33672;SDS011;20011;51.510;9.942;2023-07-20T03:15:04;7.00;;;2.28;;
33672;SDS011;20011;51.510;9.942;2023-07-20T03:17:31;7.63;;;2.47;;
33672;SDS011;20011;51.510;9.942;2023-07-20T03:19:59;2.97;;;2.20;;
33672;SDS011;20011;51.510;9.942;2023-07-20T03:22:28;4.75;;;2.20;;
33672;SDS011;20011;51.510;9.942;2023-07-20T03:24:55;5.25;;;2.55;;
33672;SDS011;20011;51.510;9.942;2023-07-20T03:27:22;2.83;;;2.20;;
33672;SDS011;20011;51.510;9.942;2023-07-20T03:29:49;2.75;;;2.38;;
33672;SDS011;20011;51.510;9.942;2023-07-20T03:32:16;3.97;;;2.20;;
33672;SDS011;20011;51.510;9.942;2023-07-20T03:34:43;16.85;;;2.65;;
33672;SDS011;20011;51.510;9.942;2023-07-20T03:37:12;6.20;;;3.13;;
33672;SDS011;20011;51.510;9.942;2023-07-20T03:39:39;5.70;;;2.25;;
33672;SDS011;20011;51.510;9.942;2023-07-20T03:42:07;2.50;;;2.17;;
33672;SDS011;20011;51.510;9.942;2023-07-20T03:44:34;11.18;;;3.13;;
33672;SDS011;20011;51.510;9.942;2023-07-20T03:47:01;4.95;;;2.78;;
33672;SDS011;20011;51.510;9.942;2023-07-20T03:49:30;4.25;;;2.72;;
33672;SDS011;20011;51.510;9.942;2023-07-20T03:51:57;7.32;;;2.72;;
33672;SDS011;20011;51.510;9.942;2023-07-20T03:54:24;4.70;;;2.63;;
33672;SDS011;20011;51.510;9.942;2023-07-20T03:56:51;4.45;;;2.45;;
33672;SDS011;20011;51.510;9.942;2023-07-20T03:59:18;5.22;;;2.97;;
33672;SDS011;20011;51.510;9.942;2023-07-20T04:01:44;7.63;;;3.05;;
33672;SDS011;20011;51.510;9.942;2023-07-20T04:04:13;8.00;;;2.58;;
33672;SDS011;20011;51.510;9.942;2023-07-20T04:06:42;4.45;;;2.80;;
33672;SDS011;20011;51.510;9.942;2023-07-20T04:09:12;8.88;;;2.70;;
33672;SDS011;20011;51.510;9.942;2023-07-20T04:11:39;4.78;;;2.60;;
33672;SDS011;20011;51.510;9.942;2023-07-20T04:14:07;2.85;;;2.50;;
33672;SDS011;20011;51.510;9.942;2023-07-20T04:16:33;4.53;;;2.60;;
33672;SDS011;20011;51.510;9.942;2023-07-20T04:19:00;2.80;;;2.35;;
33672;SDS011;20011;51.510;9.942;2023-07-20T04:21:27;4.03;;;2.92;;
33672;SDS011;20011;51.510;9.942;2023-07-20T04:23:55;2.42;;;2.15;;
33672;SDS011;20011;51.510;9.942;2023-07-20T04:26:23;8.27;;;3.65;;
33672;SDS011;20011;51.510;9.942;2023-07-20T04:28:51;8.52;;;3.47;;
33672;SDS011;20011;51.510;9.942;2023-07-20T04:31:30;6.53;;;3.00;;
33672;SDS011;20011;51.510;9.942;2023-07-20T04:34:00;4.95;;;2.67;;
33672;SDS011;20011;51.510;9.942;2023-07-20T04:36:27;9.02;;;3.10;;
33672;SDS011;20011;51.510;9.942;2023-07-20T04:38:55;6.10;;;2.92;;
33672;SDS011;20011;51.510;9.942;2023-07-20T04:41:22;10.18;;;3.80;;
33672;SDS011;20011;51.510;9.942;2023-07-20T04:43:51;7.72;;;3.60;;
33672;SDS011;20011;51.510;9.942;2023-07-20T04:46:28;4.95;;;4.30;;
33672;SDS011;20011;51.510;9.942;2023-07-20T04:48:57;9.93;;;4.10;;
33672;SDS011;20011;51.510;9.942;2023-07-20T04:51:31;5.57;;;4.18;;
33672;SDS011;20011;51.510;9.942;2023-07-20T04:53:58;7.55;;;4.25;;
33672;SDS011;20011;51.510;9.942;2023-07-20T04:56:30;10.70;;;4.40;;
33672;SDS011;20011;51.510;9.942;2023-07-20T04:58:57;14.00;;;5.10;;
33672;SDS011;20011;51.510;9.942;2023-07-20T05:01:24;15.23;;;5.07;;
33672;SDS011;20011;51.510;9.942;2023-07-20T05:03:51;6.90;;;4.63;;
33672;SDS011;20011;51.510;9.942;2023-07-20T05:06:18;9.93;;;4.70;;
33672;SDS011;20011;51.510;9.942;2023-07-20T05:08:45;6.55;;;4.93;;
33672;SDS011;20011;51.510;9.942;2023-07-20T05:11:12;11.45;;;4.90;;
33672;SDS011;20011;51.510;9.942;2023-07-20T05:13:40;11.32;;;5.10;;
33672;SDS011;20011;51.510;9.942;2023-07-20T05:16:07;8.07;;;5.28;;
33672;SDS011;20011;51.510;9.942;2023-07-20T05:18:34;7.35;;;5.03;;
33672;SDS011;20011;51.510;9.942;2023-07-20T05:21:01;9.75;;;5.13;;
33672;SDS011;20011;51.510;9.942;2023-07-20T05:23:28;9.35;;;4.78;;
33672;SDS011;20011;51.510;9.942;2023-07-20T05:25:58;5.95;;;5.18;;
33672;SDS011;20011;51.510;9.942;2023-07-20T05:28:26;11.63;;;4.97;;
33672;SDS011;20011;51.510;9.942;2023-07-20T05:30:53;5.88;;;4.63;;
33672;SDS011;20011;51.510;9.942;2023-07-20T05:33:21;11.05;;;5.15;;
33672;SDS011;20011;51.510;9.942;2023-07-20T05:35:48;7.80;;;5.20;;
33672;SDS011;20011;51.510;9.942;2023-07-20T05:38:15;9.40;;;6.20;;
33672;SDS011;20011;51.510;9.942;2023-07-20T05:40:44;15.25;;;6.32;;
33672;SDS011;20011;51.510;9.942;2023-07-20T05:43:11;8.02;;;5.10;;
33672;SDS011;20011;51.510;9.942;2023-07-20T05:45:41;12.88;;;5.82;;
33672;SDS011;20011;51.510;9.942;2023-07-20T05:48:09;10.68;;;6.28;;
33672;SDS011;20011;51.510;9.942;2023-07-20T05:50:41;11.95;;;5.88;;
33672;SDS011;20011;51.510;9.942;2023-07-20T05:53:09;10.75;;;6.18;;
33672;SDS011;20011;51.510;9.942;2023-07-20T05:55:36;12.20;;;7.82;;
33672;SDS011;20011;51.510;9.942;2023-07-20T05:58:03;10.27;;;6.60;;
33672;SDS011;20011;51.510;9.942;2023-07-20T06:00:30;12.43;;;7.03;;
33672;SDS011;20011;51.510;9.942;2023-07-20T06:02:57;11.70;;;7.15;;
33672;SDS011;20011;51.510;9.942;2023-07-20T06:05:24;11.32;;;7.40;;
33672;SDS011;20011;51.510;9.942;2023-07-20T06:07:54;12.82;;;7.10;;
33672;SDS011;20011;51.510;9.942;2023-07-20T06:10:22;10.07;;;6.55;;
33672;SDS011;20011;51.510;9.942;2023-07-20T06:12:48;16.40;;;8.93;;
33672;SDS011;20011;51.510;9.942;2023-07-20T06:15:28;10.70;;;6.85;;
33672;SDS011;20011;51.510;9.942;2023-07-20T06:17:58;13.30;;;6.90;;
33672;SDS011;20011;51.510;9.942;2023-07-20T06:20:25;14.00;;;7.78;;
33672;SDS011;20011;51.510;9.942;2023-07-20T06:22:52;10.40;;;7.82;;
33672;SDS011;20011;51.510;9.942;2023-07-20T06:25:20;15.13;;;8.38;;
33672;SDS011;20011;51.510;9.942;2023-07-20T06:27:48;15.18;;;9.52;;
33672;SDS011;20011;51.510;9.942;2023-07-20T06:30:16;15.75;;;9.35;;
33672;SDS011;20011;51.510;9.942;2023-07-20T06:32:43;16.65;;;9.27;;
33672;SDS011;20011;51.510;9.942;2023-07-20T06:35:10;16.65;;;10.07;;
33672;SDS011;20011;51.510;9.942;2023-07-20T06:37:37;15.63;;;10.77;;
33672;SDS011;20011;51.510;9.942;2023-07-20T06:40:04;14.52;;;9.98;;
33672;SDS011;20011;51.510;9.942;2023-07-20T06:42:35;18.08;;;10.77;;
33672;SDS011;20011;51.510;9.942;2023-07-20T06:45:06;14.00;;;10.55;;
33672;SDS011;20011;51.510;9.942;2023-07-20T06:47:33;14.85;;;8.82;;
33672;SDS011;20011;51.510;9.942;2023-07-20T06:50:00;12.80;;;8.60;;
33672;SDS011;20011;51.510;9.942;2023-07-20T06:52:28;17.40;;;8.52;;
33672;SDS011;20011;51.510;9.942;2023-07-20T06:54:55;12.43;;;8.00;;
33672;SDS011;20011;51.510;9.942;2023-07-20T06:57:24;11.32;;;7.57;;
33672;SDS011;20011;51.510;9.942;2023-07-20T06:59:52;10.80;;;6.63;;
33672;SDS011;20011;51.510;9.942;2023-07-20T07:02:19;8.45;;;6.38;;
33672;SDS011;20011;51.510;9.942;2023-07-20T07:04:46;7.05;;;5.25;;
33672;SDS011;20011;51.510;9.942;2023-07-20T07:07:14;10.48;;;5.13;;
33672;SDS011;20011;51.510;9.942;2023-07-20T07:09:51;8.00;;;5.22;;
33672;SDS011;20011;51.510;9.942;2023-07-20T07:12:18;9.35;;;4.75;;
33672;SDS011;20011;51.510;9.942;2023-07-20T07:14:45;6.72;;;5.20;;
33672;SDS011;20011;51.510;9.942;2023-07-20T07:17:12;8.13;;;5.25;;
33672;SDS011;20011;51.510;9.942;2023-07-20T07:19:44;7.95;;;5.07;;
33672;SDS011;20011;51.510;9.942;2023-07-20T07:24:42;7.38;;;5.13;;
33672;SDS011;20011;51.510;9.942;2023-07-20T07:27:09;12.95;;;5.88;;
33672;SDS011;20011;51.510;9.942;2023-07-20T07:29:36;6.38;;;5.47;;
33672;SDS011;20011;51.510;9.942;2023-07-20T07:32:03;6.90;;;5.75;;
33672;SDS011;20011;51.510;9.942;2023-07-20T07:34:30;7.45;;;4.85;;
33672;SDS011;20011;51.510;9.942;2023-07-20T07:39:28;4.93;;;3.55;;
33672;SDS011;20011;51.510;9.942;2023-07-20T07:42:01;3.13;;;2.83;;
33672;SDS011;20011;51.510;9.942;2023-07-20T07:44:28;3.83;;;2.75;;
33672;SDS011;20011;51.510;9.942;2023-07-20T07:46:55;4.53;;;3.28;;
33672;SDS011;20011;51.510;9.942;2023-07-20T07:49:22;3.03;;;2.45;;
33672;SDS011;20011;51.510;9.942;2023-07-20T07:51:49;6.18;;;3.40;;
33672;SDS011;20011;51.510;9.942;2023-07-20T07:54:16;5.72;;;3.35;;
33672;SDS011;20011;51.510;9.942;2023-07-20T07:56:43;5.65;;;3.42;;
33672;SDS011;20011;51.510;9.942;2023-07-20T07:59:11;4.07;;;3.03;;
33672;SDS011;20011;51.510;9.942;2023-07-20T08:01:38;3.42;;;2.88;;
33672;SDS011;20011;51.510;9.942;2023-07-20T08:04:05;3.28;;;2.97;;
33672;SDS011;20011;51.510;9.942;2023-07-20T08:06:32;5.45;;;2.63;;
33672;SDS011;20011;51.510;9.942;2023-07-20T08:08:59;5.90;;;3.38;;
33672;SDS011;20011;51.510;9.942;2023-07-20T08:11:26;6.22;;;3.38;;
33672;SDS011;20011;51.510;9.942;2023-07-20T08:13:53;7.40;;;3.00;;
33672;SDS011;20011;51.510;9.942;2023-07-20T08:16:20;4.82;;;3.10;;
33672;SDS011;20011;51.510;9.942;2023-07-20T08:18:48;7.22;;;3.80;;
33672;SDS011;20011;51.510;9.942;2023-07-20T08:21:15;3.05;;;2.75;;
33672;SDS011;20011;51.510;9.942;2023-07-20T08:23:41;9.63;;;5.90;;
33672;SDS011;20011;51.510;9.942;2023-07-20T08:26:09;3.40;;;2.90;;
33672;SDS011;20011;51.510;9.942;2023-07-20T08:28:35;3.05;;;1.95;;
33672;SDS011;20011;51.510;9.942;2023-07-20T08:31:03;1.92;;;1.60;;
33672;SDS011;20011;51.510;9.942;2023-07-20T08:33:32;2.35;;;1.90;;
33672;SDS011;20011;51.510;9.942;2023-07-20T08:36:00;2.75;;;1.90;;
33672;SDS011;20011;51.510;9.942;2023-07-20T08:38:28;4.18;;;2.40;;
33672;SDS011;20011;51.510;9.942;2023-07-20T08:40:55;11.32;;;2.25;;
33672;SDS011;20011;51.510;9.942;2023-07-20T08:43:22;6.03;;;1.95;;
33672;SDS011;20011;51.510;9.942;2023-07-20T08:45:55;4.43;;;1.88;;
33672;SDS011;20011;51.510;9.942;2023-07-20T08:48:23;2.45;;;2.03;;
33672;SDS011;20011;51.510;9.942;2023-07-20T08:50:51;3.65;;;1.73;;
33672;SDS011;20011;51.510;9.942;2023-07-20T08:53:20;1.40;;;1.30;;
33672;SDS011;20011;51.510;9.942;2023-07-20T08:55:48;1.45;;;1.20;;
33672;SDS011;20011;51.510;9.942;2023-07-20T08:58:18;1.10;;;1.00;;
33672;SDS011;20011;51.510;9.942;2023-07-20T09:00:46;1.38;;;1.00;;
33672;SDS011;20011;51.510;9.942;2023-07-20T09:03:16;2.25;;;1.10;;
33672;SDS011;20011;51.510;9.942;2023-07-20T09:05:44;1.20;;;1.05;;
33672;SDS011;20011;51.510;9.942;2023-07-20T09:08:12;1.85;;;1.08;;
33672;SDS011;20011;51.510;9.942;2023-07-20T09:10:38;1.45;;;1.10;;
33672;SDS011;20011;51.510;9.942;2023-07-20T09:13:05;1.45;;;1.35;;
33672;SDS011;20011;51.510;9.942;2023-07-20T09:15:35;1.20;;;1.20;;
33672;SDS011;20011;51.510;9.942;2023-07-20T09:18:02;1.40;;;1.30;;
33672;SDS011;20011;51.510;9.942;2023-07-20T09:20:31;1.67;;;1.20;;
33672;SDS011;20011;51.510;9.942;2023-07-20T09:23:00;2.70;;;1.58;;
33672;SDS011;20011;51.510;9.942;2023-07-20T09:25:32;5.25;;;1.75;;
33672;SDS011;20011;51.510;9.942;2023-07-20T09:28:01;5.55;;;1.70;;
33672;SDS011;20011;51.510;9.942;2023-07-20T09:30:31;3.78;;;1.20;;
33672;SDS011;20011;51.510;9.942;2023-07-20T09:32:59;1.30;;;1.17;;
33672;SDS011;20011;51.510;9.942;2023-07-20T09:35:26;1.02;;;1.00;;
33672;SDS011;20011;51.510;9.942;2023-07-20T09:38:07;1.60;;;0.98;;
33672;SDS011;20011;51.510;9.942;2023-07-20T09:40:38;1.38;;;1.25;;
33672;SDS011;20011;51.510;9.942;2023-07-20T09:43:09;4.60;;;1.00;;
33672;SDS011;20011;51.510;9.942;2023-07-20T09:45:40;3.97;;;1.17;;
33672;SDS011;20011;51.510;9.942;2023-07-20T09:48:13;2.13;;;1.10;;
33672;SDS011;20011;51.510;9.942;2023-07-20T09:50:48;1.33;;;1.23;;
33672;SDS011;20011;51.510;9.942;2023-07-20T09:53:16;1.23;;;1.00;;
33672;SDS011;20011;51.510;9.942;2023-07-20T09:55:45;2.13;;;1.00;;
33672;SDS011;20011;51.510;9.942;2023-07-20T09:58:13;2.03;;;0.98;;
33672;SDS011;20011;51.510;9.942;2023-07-20T10:00:42;3.10;;;1.20;;
33672;SDS011;20011;51.510;9.942;2023-07-20T10:03:18;1.77;;;0.70;;
33672;SDS011;20011;51.510;9.942;2023-07-20T10:08:15;0.80;;;0.80;;
33672;SDS011;20011;51.510;9.942;2023-07-20T10:10:48;1.33;;;1.20;;
33672;SDS011;20011;51.510;9.942;2023-07-20T10:13:17;1.40;;;1.00;;
33672;SDS011;20011;51.510;9.942;2023-07-20T10:15:50;2.28;;;1.50;;
33672;SDS011;20011;51.510;9.942;2023-07-20T10:18:30;1.02;;;1.00;;
33672;SDS011;20011;51.510;9.942;2023-07-20T10:21:17;3.38;;;1.73;;
33672;SDS011;20011;51.510;9.942;2023-07-20T10:23:52;1.55;;;0.93;;
33672;SDS011;20011;51.510;9.942;2023-07-20T10:26:20;0.95;;;0.95;;
33672;SDS011;20011;51.510;9.942;2023-07-20T10:28:49;0.95;;;0.90;;
33672;SDS011;20011;51.510;9.942;2023-07-20T10:31:16;0.95;;;0.70;;
33672;SDS011;20011;51.510;9.942;2023-07-20T10:33:44;1.58;;;1.15;;
33672;SDS011;20011;51.510;9.942;2023-07-20T10:36:12;2.60;;;0.88;;
33672;SDS011;20011;51.510;9.942;2023-07-20T10:41:46;2.05;;;0.70;;
33672;SDS011;20011;51.510;9.942;2023-07-20T10:44:07;1.15;;;0.65;;
33672;SDS011;20011;51.510;9.942;2023-07-20T10:49:05;0.60;;;0.60;;
33672;SDS011;20011;51.510;9.942;2023-07-20T10:51:41;1.23;;;0.80;;
33672;SDS011;20011;51.510;9.942;2023-07-20T10:54:08;0.95;;;0.70;;
33672;SDS011;20011;51.510;9.942;2023-07-20T10:59:51;1.77;;;0.73;;
33672;SDS011;20011;51.510;9.942;2023-07-20T11:02:18;0.68;;;0.50;;
33672;SDS011;20011;51.510;9.942;2023-07-20T11:04:47;0.30;;;0.30;;
33672;SDS011;20011;51.510;9.942;2023-07-20T11:07:17;0.43;;;0.40;;
33672;SDS011;20011;51.510;9.942;2023-07-20T11:10:14;1.02;;;0.70;;
33672;SDS011;20011;51.510;9.942;2023-07-20T11:15:47;2.75;;;0.60;;
33672;SDS011;20011;51.510;9.942;2023-07-20T11:18:26;1.42;;;0.50;;
33672;SDS011;20011;51.510;9.942;2023-07-20T11:23:21;1.85;;;0.68;;
33672;SDS011;20011;51.510;9.942;2023-07-20T11:25:48;6.20;;;0.70;;
33672;SDS011;20011;51.510;9.942;2023-07-20T11:28:16;0.90;;;0.70;;
33672;SDS011;20011;51.510;9.942;2023-07-20T11:30:43;0.50;;;0.50;;
33672;SDS011;20011;51.510;9.942;2023-07-20T11:33:10;2.35;;;0.50;;
33672;SDS011;20011;51.510;9.942;2023-07-20T11:35:48;0.93;;;0.50;;
33672;SDS011;20011;51.510;9.942;2023-07-20T11:38:17;0.80;;;0.63;;
33672;SDS011;20011;51.510;9.942;2023-07-20T11:40:45;0.45;;;0.45;;
33672;SDS011;20011;51.510;9.942;2023-07-20T11:43:12;1.33;;;0.60;;
33672;SDS011;20011;51.510;9.942;2023-07-20T11:45:43;0.70;;;0.50;;
33672;SDS011;20011;51.510;9.942;2023-07-20T11:48:17;0.50;;;0.50;;
33672;SDS011;20011;51.510;9.942;2023-07-20T11:50:44;0.85;;;0.68;;
33672;SDS011;20011;51.510;9.942;2023-07-20T11:53:11;4.38;;;0.70;;
33672;SDS011;20011;51.510;9.942;2023-07-20T11:55:40;0.45;;;0.45;;
33672;SDS011;20011;51.510;9.942;2023-07-20T11:58:08;2.72;;;0.50;;
33672;SDS011;20011;51.510;9.942;2023-07-20T12:00:38;1.02;;;0.73;;
33672;SDS011;20011;51.510;9.942;2023-07-20T12:03:06;2.45;;;0.57;;
33672;SDS011;20011;51.510;9.942;2023-07-20T12:05:34;0.80;;;0.55;;
33672;SDS011;20011;51.510;9.942;2023-07-20T12:08:21;0.38;;;0.38;;
33672;SDS011;20011;51.510;9.942;2023-07-20T12:10:48;0.50;;;0.50;;
33672;SDS011;20011;51.510;9.942;2023-07-20T12:13:16;0.93;;;0.73;;
33672;SDS011;20011;51.510;9.942;2023-07-20T12:15:43;0.70;;;0.45;;
33672;SDS011;20011;51.510;9.942;2023-07-20T12:18:10;0.50;;;0.50;;
33672;SDS011;20011;51.510;9.942;2023-07-20T12:20:37;0.40;;;0.40;;
33672;SDS011;20011;51.510;9.942;2023-07-20T12:23:11;0.50;;;0.50;;
33672;SDS011;20011;51.510;9.942;2023-07-20T12:25:43;0.43;;;0.30;;
33672;SDS011;20011;51.510;9.942;2023-07-20T12:28:15;0.52;;;0.52;;
33672;SDS011;20011;51.510;9.942;2023-07-20T12:30:44;1.23;;;0.90;;
33672;SDS011;20011;51.510;9.942;2023-07-20T12:33:12;5.57;;;0.70;;
33672;SDS011;20011;51.510;9.942;2023-07-20T12:35:42;1.05;;;0.50;;
33672;SDS011;20011;51.510;9.942;2023-07-20T12:38:10;0.82;;;0.70;;
33672;SDS011;20011;51.510;9.942;2023-07-20T12:40:37;0.82;;;0.50;;
33672;SDS011;20011;51.510;9.942;2023-07-20T12:43:04;0.55;;;0.40;;
33672;SDS011;20011;51.510;9.942;2023-07-20T12:45:31;2.47;;;0.68;;
33672;SDS011;20011;51.510;9.942;2023-07-20T12:47:58;1.23;;;0.55;;
33672;SDS011;20011;51.510;9.942;2023-07-20T12:50:26;0.70;;;0.50;;
33672;SDS011;20011;51.510;9.942;2023-07-20T12:52:53;2.88;;;0.60;;
33672;SDS011;20011;51.510;9.942;2023-07-20T12:55:20;0.65;;;0.60;;
33672;SDS011;20011;51.510;9.942;2023-07-20T12:57:47;0.82;;;0.60;;
33672;SDS011;20011;51.510;9.942;2023-07-20T13:00:14;0.50;;;0.50;;
33672;SDS011;20011;51.510;9.942;2023-07-20T13:02:42;1.10;;;0.45;;
33672;SDS011;20011;51.510;9.942;2023-07-20T13:05:10;1.88;;;0.63;;
33672;SDS011;20011;51.510;9.942;2023-07-20T13:07:37;2.08;;;0.50;;
33672;SDS011;20011;51.510;9.942;2023-07-20T13:10:08;3.70;;;0.70;;
33672;SDS011;20011;51.510;9.942;2023-07-20T13:12:37;5.25;;;1.25;;
33672;SDS011;20011;51.510;9.942;2023-07-20T13:15:05;13.10;;;1.38;;
33672;SDS011;20011;51.510;9.942;2023-07-20T13:17:38;20.33;;;1.40;;
33672;SDS011;20011;51.510;9.942;2023-07-20T13:20:06;8.27;;;0.82;;
33672;SDS011;20011;51.510;9.942;2023-07-20T13:22:36;0.40;;;0.40;;
33672;SDS011;20011;51.510;9.942;2023-07-20T13:25:04;0.73;;;0.60;;
33672;SDS011;20011;51.510;9.942;2023-07-20T13:27:32;0.32;;;0.32;;
33672;SDS011;20011;51.510;9.942;2023-07-20T13:30:00;6.85;;;0.68;;
33672;SDS011;20011;51.510;9.942;2023-07-20T13:32:29;1.52;;;0.63;;
33672;SDS011;20011;51.510;9.942;2023-07-20T13:35:00;1.38;;;0.70;;
33672;SDS011;20011;51.510;9.942;2023-07-20T13:37:28;1.00;;;0.68;;
33672;SDS011;20011;51.510;9.942;2023-07-20T13:39:55;0.60;;;0.40;;
33672;SDS011;20011;51.510;9.942;2023-07-20T13:42:23;1.27;;;0.60;;
33672;SDS011;20011;51.510;9.942;2023-07-20T13:44:50;0.60;;;0.52;;
33672;SDS011;20011;51.510;9.942;2023-07-20T13:47:17;0.98;;;0.70;;
33672;SDS011;20011;51.510;9.942;2023-07-20T13:49:48;1.13;;;0.50;;
33672;SDS011;20011;51.510;9.942;2023-07-20T13:52:28;3.40;;;1.02;;
33672;SDS011;20011;51.510;9.942;2023-07-20T13:54:58;6.80;;;0.90;;
33672;SDS011;20011;51.510;9.942;2023-07-20T13:57:26;10.82;;;1.10;;
33672;SDS011;20011;51.510;9.942;2023-07-20T13:59:53;2.08;;;1.00;;
33672;SDS011;20011;51.510;9.942;2023-07-20T14:02:20;1.13;;;0.77;;
33672;SDS011;20011;51.510;9.942;2023-07-20T14:04:51;0.30;;;0.30;;
33672;SDS011;20011;51.510;9.942;2023-07-20T14:07:25;1.10;;;0.68;;
33672;SDS011;20011;51.510;9.942;2023-07-20T14:09:52;2.35;;;0.63;;
33672;SDS011;20011;51.510;9.942;2023-07-20T14:12:22;1.60;;;0.68;;
33672;SDS011;20011;51.510;9.942;2023-07-20T14:14:50;0.73;;;0.47;;
33672;SDS011;20011;51.510;9.942;2023-07-20T14:17:17;0.50;;;0.50;;
33672;SDS011;20011;51.510;9.942;2023-07-20T14:19:44;1.85;;;0.50;;
33672;SDS011;20011;51.510;9.942;2023-07-20T14:22:11;0.73;;;0.73;;
33672;SDS011;20011;51.510;9.942;2023-07-20T14:24:38;3.28;;;0.90;;
33672;SDS011;20011;51.510;9.942;2023-07-20T14:27:06;0.73;;;0.32;;
33672;SDS011;20011;51.510;9.942;2023-07-20T14:29:33;0.73;;;0.68;;
33672;SDS011;20011;51.510;9.942;2023-07-20T14:32:02;2.22;;;0.85;;
33672;SDS011;20011;51.510;9.942;2023-07-20T14:34:32;0.40;;;0.40;;
33672;SDS011;20011;51.510;9.942;2023-07-20T14:37:04;0.90;;;0.65;;
33672;SDS011;20011;51.510;9.942;2023-07-20T14:39:32;2.55;;;0.63;;
33672;SDS011;20011;51.510;9.942;2023-07-20T14:41:59;0.50;;;0.50;;
33672;SDS011;20011;51.510;9.942;2023-07-20T14:44:26;0.38;;;0.28;;
33672;SDS011;20011;51.510;9.942;2023-07-20T14:46:53;0.50;;;0.40;;
33672;SDS011;20011;51.510;9.942;2023-07-20T14:49:38;1.10;;;0.50;;
33672;SDS011;20011;51.510;9.942;2023-07-20T14:52:05;0.40;;;0.40;;
33672;SDS011;20011;51.510;9.942;2023-07-20T14:54:41;1.35;;;0.57;;
33672;SDS011;20011;51.510;9.942;2023-07-20T14:57:08;1.10;;;0.52;;
33672;SDS011;20011;51.510;9.942;2023-07-20T14:59:41;3.60;;;0.70;;
33672;SDS011;20011;51.510;9.942;2023-07-20T15:02:08;2.55;;;0.68;;
33672;SDS011;20011;51.510;9.942;2023-07-20T15:04:36;2.65;;;1.02;;
33672;SDS011;20011;51.510;9.942;2023-07-20T15:07:03;1.17;;;0.60;;
33672;SDS011;20011;51.510;9.942;2023-07-20T15:09:31;1.05;;;0.50;;
33672;SDS011;20011;51.510;9.942;2023-07-20T15:11:58;0.40;;;0.40;;
33672;SDS011;20011;51.510;9.942;2023-07-20T15:14:25;0.90;;;0.47;;
33672;SDS011;20011;51.510;9.942;2023-07-20T15:16:52;3.20;;;0.68;;
33672;SDS011;20011;51.510;9.942;2023-07-20T15:19:19;0.40;;;0.40;;
33672;SDS011;20011;51.510;9.942;2023-07-20T15:21:48;1.67;;;0.47;;
33672;SDS011;20011;51.510;9.942;2023-07-20T15:24:15;0.50;;;0.50;;